sensor_id;sensor_type;location;lat;lon;timestamp;pressure;altitude;pressure_sealevel;temperature;humidity
40992;BME280;29633;49.168;9.848;2023-05-08T00:02:29;97127.09;;;20.14;64.78
40992;BME280;29633;49.168;9.848;2023-05-08T00:04:55;97125.25;;;20.15;65.15
40992;BME280;29633;49.168;9.848;2023-05-08T00:07:21;97126.06;;;20.15;65.09
40992;BME280;29633;49.168;9.848;2023-05-08T00:09:49;97122.47;;;20.17;64.78
40992;BME280;29633;49.168;9.848;2023-05-08T00:12:15;97120.66;;;20.17;64.72
40992;BME280;29633;49.168;9.848;2023-05-08T00:14:40;97124.94;;;20.18;65.17
40992;BME280;29633;49.168;9.848;2023-05-08T00:17:06;97114.56;;;20.17;64.94
40992;BME280;29633;49.168;9.848;2023-05-08T00:19:32;97121.63;;;20.16;64.92
40992;BME280;29633;49.168;9.848;2023-05-08T00:21:57;97121.00;;;20.14;65.03
40992;BME280;29633;49.168;9.848;2023-05-08T00:24:23;97122.63;;;20.15;64.91
40992;BME280;29633;49.168;9.848;2023-05-08T00:26:48;97123.44;;;20.15;65.00
40992;BME280;29633;49.168;9.848;2023-05-08T00:29:14;97123.28;;;20.17;64.79
40992;BME280;29633;49.168;9.848;2023-05-08T00:31:40;97124.47;;;20.14;64.88
40992;BME280;29633;49.168;9.848;2023-05-08T00:34:05;97130.50;;;20.15;64.98
40992;BME280;29633;49.168;9.848;2023-05-08T00:36:31;97130.50;;;20.15;65.13
40992;BME280;29633;49.168;9.848;2023-05-08T00:38:57;97126.44;;;20.12;65.15
40992;BME280;29633;49.168;9.848;2023-05-08T00:41:22;97137.78;;;20.13;65.24
40992;BME280;29633;49.168;9.848;2023-05-08T00:43:48;97134.16;;;20.14;64.93
40992;BME280;29633;49.168;9.848;2023-05-08T00:46:14;97135.97;;;20.13;65.38
40992;BME280;29633;49.168;9.848;2023-05-08T00:48:41;97127.25;;;20.13;65.00
40992;BME280;29633;49.168;9.848;2023-05-08T00:51:07;97135.00;;;20.14;64.96
40992;BME280;29633;49.168;9.848;2023-05-08T00:53:36;97135.00;;;20.14;65.24
40992;BME280;29633;49.168;9.848;2023-05-08T00:56:03;97129.72;;;20.14;65.31
40992;BME280;29633;49.168;9.848;2023-05-08T00:58:29;97134.16;;;20.14;65.24
40992;BME280;29633;49.168;9.848;2023-05-08T01:00:56;97137.94;;;20.11;65.12
40992;BME280;29633;49.168;9.848;2023-05-08T01:03:22;97140.09;;;20.08;65.20
40992;BME280;29633;49.168;9.848;2023-05-08T01:05:48;97143.56;;;20.08;65.51
40992;BME280;29633;49.168;9.848;2023-05-08T01:08:14;97140.44;;;20.05;65.40
40992;BME280;29633;49.168;9.848;2023-05-08T01:11:20;97141.47;;;20.04;65.57
40992;BME280;29633;49.168;9.848;2023-05-08T01:16:41;97141.13;;;20.07;65.37
40992;BME280;29633;49.168;9.848;2023-05-08T01:22:32;97138.97;;;20.10;65.43
40992;BME280;29633;49.168;9.848;2023-05-08T01:27:59;97146.31;;;20.15;65.67
40992;BME280;29633;49.168;9.848;2023-05-08T01:30:39;97145.50;;;20.14;65.39
40992;BME280;29633;49.168;9.848;2023-05-08T01:33:37;97142.69;;;20.16;65.65
40992;BME280;29633;49.168;9.848;2023-05-08T01:36:16;97142.88;;;20.14;65.52
40992;BME280;29633;49.168;9.848;2023-05-08T01:41:25;97148.94;;;20.15;65.61
40992;BME280;29633;49.168;9.848;2023-05-08T01:44:12;97153.22;;;20.16;65.64
40992;BME280;29633;49.168;9.848;2023-05-08T01:46:39;97149.59;;;20.17;65.51
40992;BME280;29633;49.168;9.848;2023-05-08T01:49:09;97149.59;;;20.17;65.63
40992;BME280;29633;49.168;9.848;2023-05-08T01:51:46;97154.69;;;20.19;65.52
40992;BME280;29633;49.168;9.848;2023-05-08T01:54:20;97150.22;;;20.19;65.75
40992;BME280;29633;49.168;9.848;2023-05-08T01:56:47;97153.69;;;20.20;65.76
40992;BME280;29633;49.168;9.848;2023-05-08T01:59:17;97151.88;;;20.20;65.63
40992;BME280;29633;49.168;9.848;2023-05-08T02:01:45;97157.00;;;20.22;65.80
40992;BME280;29633;49.168;9.848;2023-05-08T02:04:13;97151.72;;;20.22;65.71
40992;BME280;29633;49.168;9.848;2023-05-08T02:06:39;97162.41;;;20.20;65.89
40992;BME280;29633;49.168;9.848;2023-05-08T02:09:09;97160.75;;;20.19;65.06
40992;BME280;29633;49.168;9.848;2023-05-08T02:11:37;97160.13;;;20.17;65.61
40992;BME280;29633;49.168;9.848;2023-05-08T02:14:03;97163.75;;;20.16;65.66
40992;BME280;29633;49.168;9.848;2023-05-08T02:16:29;97163.94;;;20.14;65.96
40992;BME280;29633;49.168;9.848;2023-05-08T02:18:55;97164.94;;;20.13;65.87
40992;BME280;29633;49.168;9.848;2023-05-08T02:21:25;97173.81;;;20.12;65.89
40992;BME280;29633;49.168;9.848;2023-05-08T02:23:51;97167.72;;;20.12;65.69
40992;BME280;29633;49.168;9.848;2023-05-08T02:26:18;97157.19;;;20.12;65.83
40992;BME280;29633;49.168;9.848;2023-05-08T02:28:45;97162.44;;;20.12;65.90
40992;BME280;29633;49.168;9.848;2023-05-08T02:31:12;97168.53;;;20.12;65.75
40992;BME280;29633;49.168;9.848;2023-05-08T02:33:40;97172.16;;;20.11;65.73
40992;BME280;29633;49.168;9.848;2023-05-08T02:36:06;97170.69;;;20.09;65.87
40992;BME280;29633;49.168;9.848;2023-05-08T02:38:32;97175.50;;;20.05;65.88
40992;BME280;29633;49.168;9.848;2023-05-08T02:41:00;97162.69;;;20.02;65.80
40992;BME280;29633;49.168;9.848;2023-05-08T02:43:26;97177.66;;;20.02;65.93
40992;BME280;29633;49.168;9.848;2023-05-08T02:53:39;97169.28;;;19.98;65.83
40992;BME280;29633;49.168;9.848;2023-05-08T02:56:15;97166.66;;;19.98;66.07
40992;BME280;29633;49.168;9.848;2023-05-08T02:58:51;97170.09;;;19.99;66.07
40992;BME280;29633;49.168;9.848;2023-05-08T03:01:28;97165.81;;;19.98;65.89
40992;BME280;29633;49.168;9.848;2023-05-08T03:04:04;97170.25;;;19.97;65.54
40992;BME280;29633;49.168;9.848;2023-05-08T03:06:40;97167.00;;;19.95;65.83
40992;BME280;29633;49.168;9.848;2023-05-08T03:09:12;97162.91;;;19.93;65.96
40992;BME280;29633;49.168;9.848;2023-05-08T03:11:40;97166.69;;;19.90;66.05
40992;BME280;29633;49.168;9.848;2023-05-08T03:14:09;97159.78;;;19.89;65.97
40992;BME280;29633;49.168;9.848;2023-05-08T03:16:36;97166.88;;;19.89;65.83
40992;BME280;29633;49.168;9.848;2023-05-08T03:19:08;97155.69;;;19.87;66.19
40992;BME280;29633;49.168;9.848;2023-05-08T03:21:37;97161.13;;;19.85;66.01
40992;BME280;29633;49.168;9.848;2023-05-08T03:24:03;97154.22;;;19.84;65.73
40992;BME280;29633;49.168;9.848;2023-05-08T03:26:29;97153.59;;;19.82;65.92
40992;BME280;29633;49.168;9.848;2023-05-08T03:28:56;97153.91;;;19.79;66.14
40992;BME280;29633;49.168;9.848;2023-05-08T03:31:22;97157.53;;;19.78;65.86
40992;BME280;29633;49.168;9.848;2023-05-08T03:33:52;97157.69;;;19.77;66.04
40992;BME280;29633;49.168;9.848;2023-05-08T03:36:18;97149.31;;;19.73;65.81
40992;BME280;29633;49.168;9.848;2023-05-08T03:38:44;97151.47;;;19.70;65.80
40992;BME280;29633;49.168;9.848;2023-05-08T03:41:10;97152.66;;;19.67;65.88
40992;BME280;29633;49.168;9.848;2023-05-08T03:43:36;97152.81;;;19.65;65.96
40992;BME280;29633;49.168;9.848;2023-05-08T03:46:05;97161.69;;;19.64;65.85
40992;BME280;29633;49.168;9.848;2023-05-08T03:48:32;97163.66;;;19.62;65.81
40992;BME280;29633;49.168;9.848;2023-05-08T03:51:03;97166.47;;;19.61;65.64
40992;BME280;29633;49.168;9.848;2023-05-08T03:53:30;97162.22;;;19.60;65.72
40992;BME280;29633;49.168;9.848;2023-05-08T03:55:57;97174.69;;;19.58;65.79
40992;BME280;29633;49.168;9.848;2023-05-08T03:58:46;97168.94;;;19.54;66.07
40992;BME280;29633;49.168;9.848;2023-05-08T04:04:21;97174.22;;;19.46;65.90
40992;BME280;29633;49.168;9.848;2023-05-08T04:09:57;97179.00;;;19.43;66.04
40992;BME280;29633;49.168;9.848;2023-05-08T04:15:11;97185.41;;;19.40;65.81
40992;BME280;29633;49.168;9.848;2023-05-08T04:17:42;97188.22;;;19.39;65.88
40992;BME280;29633;49.168;9.848;2023-05-08T04:20:12;97189.19;;;19.38;66.00
40992;BME280;29633;49.168;9.848;2023-05-08T04:22:39;97188.72;;;19.34;65.92
40992;BME280;29633;49.168;9.848;2023-05-08T04:25:06;97189.84;;;19.32;65.96
40992;BME280;29633;49.168;9.848;2023-05-08T04:27:34;97187.56;;;19.29;66.27
40992;BME280;29633;49.168;9.848;2023-05-08T04:29:59;97202.69;;;19.27;66.08
40992;BME280;29633;49.168;9.848;2023-05-08T04:32:26;97201.84;;;19.26;65.99
40992;BME280;29633;49.168;9.848;2023-05-08T04:34:52;97208.28;;;19.24;65.96
40992;BME280;29633;49.168;9.848;2023-05-08T04:37:27;97212.22;;;19.20;66.14
40992;BME280;29633;49.168;9.848;2023-05-08T04:39:53;97214.38;;;19.16;66.26
40992;BME280;29633;49.168;9.848;2023-05-08T04:42:19;97213.69;;;19.14;66.15
40992;BME280;29633;49.168;9.848;2023-05-08T04:44:45;97214.03;;;19.11;66.27
40992;BME280;29633;49.168;9.848;2023-05-08T04:47:12;97218.47;;;19.10;65.97
40992;BME280;29633;49.168;9.848;2023-05-08T04:49:38;97223.72;;;19.10;66.17
40992;BME280;29633;49.168;9.848;2023-05-08T04:52:04;97223.91;;;19.09;66.07
40992;BME280;29633;49.168;9.848;2023-05-08T04:54:31;97222.56;;;19.05;66.08
40992;BME280;29633;49.168;9.848;2023-05-08T04:56:56;97226.19;;;19.04;66.29
40992;BME280;29633;49.168;9.848;2023-05-08T04:59:22;97223.75;;;19.02;66.35
40992;BME280;29633;49.168;9.848;2023-05-08T05:01:49;97231.63;;;19.02;66.14
40992;BME280;29633;49.168;9.848;2023-05-08T05:04:15;97231.78;;;19.01;66.05
40992;BME280;29633;49.168;9.848;2023-05-08T05:06:41;97225.03;;;18.98;66.30
40992;BME280;29633;49.168;9.848;2023-05-08T05:09:06;97231.91;;;18.99;66.18
40992;BME280;29633;49.168;9.848;2023-05-08T05:11:32;97225.03;;;18.98;66.05
40992;BME280;29633;49.168;9.848;2023-05-08T05:13:58;97231.28;;;18.97;65.96
40992;BME280;29633;49.168;9.848;2023-05-08T05:16:23;97227.50;;;19.00;66.10
40992;BME280;29633;49.168;9.848;2023-05-08T05:18:49;97230.13;;;19.00;66.21
40992;BME280;29633;49.168;9.848;2023-05-08T05:21:15;97226.50;;;19.01;66.19
40992;BME280;29633;49.168;9.848;2023-05-08T05:23:40;97230.78;;;19.02;66.14
40992;BME280;29633;49.168;9.848;2023-05-08T05:26:06;97230.94;;;19.00;66.12
40992;BME280;29633;49.168;9.848;2023-05-08T05:28:34;97227.50;;;19.00;66.24
40992;BME280;29633;49.168;9.848;2023-05-08T05:31:00;97233.56;;;19.00;66.33
40992;BME280;29633;49.168;9.848;2023-05-08T05:33:26;97233.56;;;19.00;66.26
40992;BME280;29633;49.168;9.848;2023-05-08T05:35:51;97232.75;;;19.00;66.53
40992;BME280;29633;49.168;9.848;2023-05-08T05:38:17;97233.09;;;18.97;66.28
40992;BME280;29633;49.168;9.848;2023-05-08T05:40:42;97245.25;;;18.98;66.54
40992;BME280;29633;49.168;9.848;2023-05-08T05:43:08;97244.75;;;18.94;66.50
40992;BME280;29633;49.168;9.848;2023-05-08T05:45:34;97246.56;;;18.94;66.50
40992;BME280;29633;49.168;9.848;2023-05-08T05:48:00;97244.25;;;18.91;66.38
40992;BME280;29633;49.168;9.848;2023-05-08T05:50:27;97254.44;;;18.94;66.36
40992;BME280;29633;49.168;9.848;2023-05-08T05:52:55;97247.84;;;18.90;66.57
40992;BME280;29633;49.168;9.848;2023-05-08T05:55:21;97256.06;;;18.87;66.53
40992;BME280;29633;49.168;9.848;2023-05-08T05:57:49;97251.66;;;18.87;66.39
40992;BME280;29633;49.168;9.848;2023-05-08T06:00:15;97243.91;;;18.86;66.33
40992;BME280;29633;49.168;9.848;2023-05-08T06:02:41;97253.44;;;18.87;66.53
40992;BME280;29633;49.168;9.848;2023-05-08T06:05:08;97253.44;;;18.87;66.55
40992;BME280;29633;49.168;9.848;2023-05-08T06:07:34;97251.78;;;18.86;66.56
40992;BME280;29633;49.168;9.848;2023-05-08T06:10:00;97249.16;;;18.86;66.44
40992;BME280;29633;49.168;9.848;2023-05-08T06:12:26;97257.03;;;18.86;66.44
40992;BME280;29633;49.168;9.848;2023-05-08T06:14:53;97259.66;;;18.86;66.44
40992;BME280;29633;49.168;9.848;2023-05-08T06:17:19;97259.03;;;18.84;66.45
40992;BME280;29633;49.168;9.848;2023-05-08T06:19:45;97254.59;;;18.84;66.30
40992;BME280;29633;49.168;9.848;2023-05-08T06:22:22;97252.94;;;18.83;66.55
40992;BME280;29633;49.168;9.848;2023-05-08T06:24:51;97260.00;;;18.83;66.61
40992;BME280;29633;49.168;9.848;2023-05-08T06:27:18;97252.94;;;18.83;66.67
40992;BME280;29633;49.168;9.848;2023-05-08T06:29:46;97260.16;;;18.81;66.60
40992;BME280;29633;49.168;9.848;2023-05-08T06:32:12;97264.28;;;18.84;66.57
40992;BME280;29633;49.168;9.848;2023-05-08T06:34:38;97265.25;;;18.83;66.59
40992;BME280;29633;49.168;9.848;2023-05-08T06:37:03;97264.59;;;18.81;66.36
40992;BME280;29633;49.168;9.848;2023-05-08T06:39:29;97268.22;;;18.80;66.38
40992;BME280;29633;49.168;9.848;2023-05-08T06:41:55;97270.16;;;18.78;66.65
40992;BME280;29633;49.168;9.848;2023-05-08T06:44:20;97266.88;;;18.76;66.64
40992;BME280;29633;49.168;9.848;2023-05-08T06:46:46;97266.06;;;18.75;66.64
40992;BME280;29633;49.168;9.848;2023-05-08T06:49:11;97268.53;;;18.77;66.81
40992;BME280;29633;49.168;9.848;2023-05-08T06:51:37;97259.97;;;18.75;66.91
40992;BME280;29633;49.168;9.848;2023-05-08T06:54:04;97266.88;;;18.76;66.50
40992;BME280;29633;49.168;9.848;2023-05-08T06:56:33;97257.69;;;18.72;66.69
40992;BME280;29633;49.168;9.848;2023-05-08T06:59:00;97270.00;;;18.71;66.70
40992;BME280;29633;49.168;9.848;2023-05-08T07:01:25;97269.84;;;18.73;67.04
40992;BME280;29633;49.168;9.848;2023-05-08T07:03:51;97271.66;;;18.72;66.79
40992;BME280;29633;49.168;9.848;2023-05-08T07:06:17;97269.84;;;18.73;66.72
40992;BME280;29633;49.168;9.848;2023-05-08T07:08:42;97265.56;;;18.72;66.86
40992;BME280;29633;49.168;9.848;2023-05-08T07:11:08;97263.63;;;18.74;66.93
40992;BME280;29633;49.168;9.848;2023-05-08T07:13:37;97267.88;;;18.75;66.79
40992;BME280;29633;49.168;9.848;2023-05-08T07:16:13;97268.53;;;18.77;67.12
40992;BME280;29633;49.168;9.848;2023-05-08T07:18:38;97262.59;;;18.75;66.91
40992;BME280;29633;49.168;9.848;2023-05-08T07:21:04;97272.28;;;18.74;66.99
40992;BME280;29633;49.168;9.848;2023-05-08T07:23:30;97276.06;;;18.72;66.88
40992;BME280;29633;49.168;9.848;2023-05-08T07:25:56;97275.25;;;18.71;67.18
40992;BME280;29633;49.168;9.848;2023-05-08T07:28:22;97277.72;;;18.73;67.02
40992;BME280;29633;49.168;9.848;2023-05-08T07:30:47;97278.56;;;18.73;67.09
40992;BME280;29633;49.168;9.848;2023-05-08T07:33:13;97275.09;;;18.73;67.03
40992;BME280;29633;49.168;9.848;2023-05-08T07:35:39;97280.03;;;18.76;67.07
40992;BME280;29633;49.168;9.848;2023-05-08T07:38:05;97281.00;;;18.75;67.33
40992;BME280;29633;49.168;9.848;2023-05-08T07:40:30;97281.50;;;18.70;67.24
40992;BME280;29633;49.168;9.848;2023-05-08T07:42:56;97281.50;;;18.70;67.15
40992;BME280;29633;49.168;9.848;2023-05-08T07:45:22;97284.28;;;18.68;67.15
40992;BME280;29633;49.168;9.848;2023-05-08T07:47:51;97287.41;;;18.72;67.19
40992;BME280;29633;49.168;9.848;2023-05-08T07:50:17;97285.28;;;18.76;67.10
40992;BME280;29633;49.168;9.848;2023-05-08T07:52:43;97286.59;;;18.80;67.19
40992;BME280;29633;49.168;9.848;2023-05-08T07:55:09;97292.81;;;18.79;67.40
40992;BME280;29633;49.168;9.848;2023-05-08T07:57:38;97287.09;;;18.83;67.32
40992;BME280;29633;49.168;9.848;2023-05-08T08:00:08;97286.78;;;18.86;67.35
40992;BME280;29633;49.168;9.848;2023-05-08T08:02:34;97284.63;;;18.90;67.17
40992;BME280;29633;49.168;9.848;2023-05-08T08:04:59;97287.13;;;18.91;67.10
40992;BME280;29633;49.168;9.848;2023-05-08T08:07:25;97293.19;;;18.92;67.34
40992;BME280;29633;49.168;9.848;2023-05-08T08:09:51;97297.44;;;18.93;67.31
40992;BME280;29633;49.168;9.848;2023-05-08T08:12:17;97298.94;;;18.95;67.29
40992;BME280;29633;49.168;9.848;2023-05-08T08:14:43;97301.41;;;18.97;67.33
40992;BME280;29633;49.168;9.848;2023-05-08T08:17:08;97298.78;;;18.97;67.18
40992;BME280;29633;49.168;9.848;2023-05-08T08:19:34;97296.81;;;18.99;67.14
40992;BME280;29633;49.168;9.848;2023-05-08T08:21:59;97299.25;;;19.00;66.98
40992;BME280;29633;49.168;9.848;2023-05-08T08:24:25;97298.28;;;19.01;67.18
40992;BME280;29633;49.168;9.848;2023-05-08T08:26:53;97305.00;;;19.04;67.45
40992;BME280;29633;49.168;9.848;2023-05-08T08:29:19;97297.13;;;19.04;67.34
40992;BME280;29633;49.168;9.848;2023-05-08T08:31:44;97303.06;;;19.06;67.40
40992;BME280;29633;49.168;9.848;2023-05-08T08:34:10;97306.97;;;19.10;67.47
40992;BME280;29633;49.168;9.848;2023-05-08T08:36:36;97300.41;;;19.14;67.40
40992;BME280;29633;49.168;9.848;2023-05-08T08:39:04;97302.75;;;19.17;67.29
40992;BME280;29633;49.168;9.848;2023-05-08T08:41:29;97311.59;;;19.16;67.23
40992;BME280;29633;49.168;9.848;2023-05-08T08:43:55;97306.34;;;19.16;67.52
40992;BME280;29633;49.168;9.848;2023-05-08T08:46:25;97303.38;;;19.19;67.33
40992;BME280;29633;49.168;9.848;2023-05-08T08:48:53;97300.28;;;19.24;67.29
40992;BME280;29633;49.168;9.848;2023-05-08T08:51:27;97314.41;;;19.31;67.29
40992;BME280;29633;49.168;9.848;2023-05-08T08:54:19;97308.47;;;19.37;67.12
40992;BME280;29633;49.168;9.848;2023-05-08T08:56:45;97310.78;;;19.40;67.41
40992;BME280;29633;49.168;9.848;2023-05-08T08:59:13;97317.84;;;19.39;67.56
40992;BME280;29633;49.168;9.848;2023-05-08T09:01:40;97308.97;;;19.40;67.37
40992;BME280;29633;49.168;9.848;2023-05-08T09:04:08;97314.41;;;19.39;67.44
40992;BME280;29633;49.168;9.848;2023-05-08T09:06:34;97310.97;;;19.38;67.55
40992;BME280;29633;49.168;9.848;2023-05-08T09:09:01;97310.78;;;19.40;67.71
40992;BME280;29633;49.168;9.848;2023-05-08T09:11:27;97308.97;;;19.40;67.75
40992;BME280;29633;49.168;9.848;2023-05-08T09:13:55;97303.59;;;19.42;67.43
40992;BME280;29633;49.168;9.848;2023-05-08T09:16:22;97306.88;;;19.44;67.73
40992;BME280;29633;49.168;9.848;2023-05-08T09:18:48;97316.22;;;19.46;67.58
40992;BME280;29633;49.168;9.848;2023-05-08T09:21:13;97319.19;;;19.51;67.21
40992;BME280;29633;49.168;9.848;2023-05-08T09:24:02;97314.09;;;19.50;67.49
40992;BME280;29633;49.168;9.848;2023-05-08T09:26:32;97312.28;;;19.50;67.50
40992;BME280;29633;49.168;9.848;2023-05-08T09:29:18;97322.66;;;19.52;67.70
40992;BME280;29633;49.168;9.848;2023-05-08T09:31:52;97310.13;;;19.54;67.74
40992;BME280;29633;49.168;9.848;2023-05-08T09:34:25;97318.53;;;19.57;67.67
40992;BME280;29633;49.168;9.848;2023-05-08T09:37:11;97322.81;;;19.58;67.47
40992;BME280;29633;49.168;9.848;2023-05-08T09:39:37;97322.81;;;19.58;67.65
40992;BME280;29633;49.168;9.848;2023-05-08T09:42:07;97318.22;;;19.60;67.60
40992;BME280;29633;49.168;9.848;2023-05-08T09:44:52;97324.75;;;19.64;67.48
40992;BME280;29633;49.168;9.848;2023-05-08T09:47:22;97326.41;;;19.65;67.49
40992;BME280;29633;49.168;9.848;2023-05-08T09:50:06;97324.28;;;19.69;67.40
40992;BME280;29633;49.168;9.848;2023-05-08T09:52:33;97331.47;;;19.75;67.48
40992;BME280;29633;49.168;9.848;2023-05-08T09:55:09;97329.34;;;19.79;67.73
40992;BME280;29633;49.168;9.848;2023-05-08T09:57:36;97332.50;;;19.82;67.58
40992;BME280;29633;49.168;9.848;2023-05-08T10:00:10;97331.66;;;19.82;67.70
40992;BME280;29633;49.168;9.848;2023-05-08T10:02:38;97334.78;;;19.85;67.44
40992;BME280;29633;49.168;9.848;2023-05-08T10:07:47;97334.09;;;19.91;67.49
40992;BME280;29633;49.168;9.848;2023-05-08T10:10:12;97336.59;;;19.93;67.78
40992;BME280;29633;49.168;9.848;2023-05-08T10:12:38;97327.53;;;19.95;67.58
40992;BME280;29633;49.168;9.848;2023-05-08T10:15:06;97329.66;;;20.00;67.60
40992;BME280;29633;49.168;9.848;2023-05-08T10:17:37;97334.56;;;20.03;67.43
40992;BME280;29633;49.168;9.848;2023-05-08T10:20:08;97332.78;;;20.03;67.50
40992;BME280;29633;49.168;9.848;2023-05-08T10:22:37;97330.63;;;20.07;67.56
40992;BME280;29633;49.168;9.848;2023-05-08T10:25:08;97333.75;;;20.10;67.43
40992;BME280;29633;49.168;9.848;2023-05-08T10:27:42;97328.78;;;20.15;67.44
40992;BME280;29633;49.168;9.848;2023-05-08T10:30:09;97333.69;;;20.19;67.37
40992;BME280;29633;49.168;9.848;2023-05-08T10:32:38;97330.91;;;20.20;67.38
40992;BME280;29633;49.168;9.848;2023-05-08T10:35:09;97334.19;;;20.22;67.45
40992;BME280;29633;49.168;9.848;2023-05-08T10:37:36;97327.94;;;20.23;67.68
40992;BME280;29633;49.168;9.848;2023-05-08T10:40:03;97319.03;;;20.24;67.38
40992;BME280;29633;49.168;9.848;2023-05-08T10:42:29;97324.47;;;20.31;67.60
40992;BME280;29633;49.168;9.848;2023-05-08T10:44:55;97324.97;;;20.34;67.65
40992;BME280;29633;49.168;9.848;2023-05-08T10:50:21;97328.56;;;20.33;67.74
40992;BME280;29633;49.168;9.848;2023-05-08T10:52:56;97325.78;;;20.35;67.38
40992;BME280;29633;49.168;9.848;2023-05-08T10:55:30;97322.16;;;20.36;67.50
40992;BME280;29633;49.168;9.848;2023-05-08T10:58:09;97325.09;;;20.41;67.51
40992;BME280;29633;49.168;9.848;2023-05-08T11:03:17;97325.09;;;20.41;67.62
40992;BME280;29633;49.168;9.848;2023-05-08T11:05:46;97317.84;;;20.43;67.81
40992;BME280;29633;49.168;9.848;2023-05-08T11:08:23;97323.13;;;20.43;67.89
40992;BME280;29633;49.168;9.848;2023-05-08T11:11:04;97325.91;;;20.41;67.54
40992;BME280;29633;49.168;9.848;2023-05-08T11:13:37;97327.72;;;20.41;67.62
40992;BME280;29633;49.168;9.848;2023-05-08T11:16:05;97323.78;;;20.37;67.77
40992;BME280;29633;49.168;9.848;2023-05-08T11:18:31;97326.59;;;20.35;67.95
40992;BME280;29633;49.168;9.848;2023-05-08T11:21:04;97326.59;;;20.35;67.89
40992;BME280;29633;49.168;9.848;2023-05-08T11:23:33;97327.09;;;20.39;67.57
40992;BME280;29633;49.168;9.848;2023-05-08T11:26:11;97323.28;;;20.41;67.76
40992;BME280;29633;49.168;9.848;2023-05-08T11:29:00;97331.66;;;20.45;67.56
40992;BME280;29633;49.168;9.848;2023-05-08T11:31:49;97329.34;;;20.50;67.47
40992;BME280;29633;49.168;9.848;2023-05-08T11:37:19;97324.09;;;20.42;67.54
40992;BME280;29633;49.168;9.848;2023-05-08T11:39:45;97329.53;;;20.40;67.66
40992;BME280;29633;49.168;9.848;2023-05-08T11:47:25;97327.94;;;20.31;67.83
40992;BME280;29633;49.168;9.848;2023-05-08T11:49:56;97322.81;;;20.30;67.55
40992;BME280;29633;49.168;9.848;2023-05-08T11:52:21;97325.47;;;20.30;67.52
40992;BME280;29633;49.168;9.848;2023-05-08T11:54:47;97322.03;;;20.29;67.67
40992;BME280;29633;49.168;9.848;2023-05-08T11:57:16;97328.09;;;20.30;67.92
40992;BME280;29633;49.168;9.848;2023-05-08T11:59:41;97328.09;;;20.30;67.92
40992;BME280;29633;49.168;9.848;2023-05-08T12:02:08;97330.91;;;20.28;67.86
40992;BME280;29633;49.168;9.848;2023-05-08T12:04:42;97330.56;;;20.31;67.69
40992;BME280;29633;49.168;9.848;2023-05-08T12:07:08;97329.22;;;20.27;67.70
40992;BME280;29633;49.168;9.848;2023-05-08T12:09:34;97330.91;;;20.28;67.86
40992;BME280;29633;49.168;9.848;2023-05-08T12:12:02;97330.56;;;20.31;67.59
40992;BME280;29633;49.168;9.848;2023-05-08T12:14:28;97333.03;;;20.33;67.90
40992;BME280;29633;49.168;9.848;2023-05-08T12:16:54;97331.22;;;20.33;67.73
40992;BME280;29633;49.168;9.848;2023-05-08T12:19:19;97329.75;;;20.31;67.87
40992;BME280;29633;49.168;9.848;2023-05-08T12:21:46;97334.84;;;20.32;67.84
40992;BME280;29633;49.168;9.848;2023-05-08T12:24:16;97335.00;;;20.31;67.79
40992;BME280;29633;49.168;9.848;2023-05-08T12:26:47;97335.34;;;20.28;67.83
40992;BME280;29633;49.168;9.848;2023-05-08T12:29:12;97337.66;;;20.31;67.78
40992;BME280;29633;49.168;9.848;2023-05-08T12:31:38;97331.41;;;20.32;67.66
40992;BME280;29633;49.168;9.848;2023-05-08T12:34:04;97331.56;;;20.30;67.76
40992;BME280;29633;49.168;9.848;2023-05-08T12:36:34;97334.19;;;20.30;67.83
40992;BME280;29633;49.168;9.848;2023-05-08T12:39:11;97339.44;;;20.30;67.60
40992;BME280;29633;49.168;9.848;2023-05-08T12:41:50;97334.66;;;20.34;67.68
40992;BME280;29633;49.168;9.848;2023-05-08T12:44:21;97331.53;;;20.38;67.67
40992;BME280;29633;49.168;9.848;2023-05-08T12:46:55;97338.75;;;20.44;67.75
40992;BME280;29633;49.168;9.848;2023-05-08T12:49:28;97333.31;;;20.46;67.44
40992;BME280;29633;49.168;9.848;2023-05-08T12:52:08;97335.44;;;20.50;67.80
40992;BME280;29633;49.168;9.848;2023-05-08T12:54:45;97334.09;;;20.54;67.76
40992;BME280;29633;49.168;9.848;2023-05-08T12:57:14;97336.56;;;20.56;67.55
40992;BME280;29633;49.168;9.848;2023-05-08T12:59:40;97333.56;;;20.59;67.53
40992;BME280;29633;49.168;9.848;2023-05-08T13:02:13;97335.06;;;20.61;67.69
40992;BME280;29633;49.168;9.848;2023-05-08T13:04:39;97325.28;;;20.70;67.53
40992;BME280;29633;49.168;9.848;2023-05-08T13:07:04;97321.78;;;20.78;67.72
40992;BME280;29633;49.168;9.848;2023-05-08T13:09:30;97322.09;;;20.83;67.46
40992;BME280;29633;49.168;9.848;2023-05-08T13:11:56;97321.25;;;20.90;67.55
40992;BME280;29633;49.168;9.848;2023-05-08T13:14:21;97309.16;;;20.96;67.52
40992;BME280;29633;49.168;9.848;2023-05-08T13:16:47;97318.00;;;21.03;67.71
40992;BME280;29633;49.168;9.848;2023-05-08T13:19:16;97306.09;;;21.15;67.34
40992;BME280;29633;49.168;9.848;2023-05-08T13:21:42;97305.50;;;21.28;67.68
40992;BME280;29633;49.168;9.848;2023-05-08T13:24:14;97309.91;;;21.35;67.44
40992;BME280;29633;49.168;9.848;2023-05-08T13:26:40;97310.47;;;21.45;67.41
40992;BME280;29633;49.168;9.848;2023-05-08T13:29:05;97315.03;;;21.51;67.31
40992;BME280;29633;49.168;9.848;2023-05-08T13:31:31;97314.69;;;21.54;67.39
40992;BME280;29633;49.168;9.848;2023-05-08T13:33:56;97313.97;;;21.60;67.80
40992;BME280;29633;49.168;9.848;2023-05-08T13:36:22;97305.53;;;21.65;67.58
40992;BME280;29633;49.168;9.848;2023-05-08T13:38:51;97310.25;;;21.70;67.70
40992;BME280;29633;49.168;9.848;2023-05-08T13:41:19;97311.72;;;21.72;67.68
40992;BME280;29633;49.168;9.848;2023-05-08T13:43:46;97308.25;;;21.72;67.42
40992;BME280;29633;49.168;9.848;2023-05-08T13:46:11;97300.34;;;21.72;67.62
40992;BME280;29633;49.168;9.848;2023-05-08T13:48:37;97300.34;;;21.72;67.37
40992;BME280;29633;49.168;9.848;2023-05-08T13:51:03;97296.72;;;21.73;67.70
40992;BME280;29633;49.168;9.848;2023-05-08T13:53:28;97295.50;;;21.75;67.62